createdAt,value
2022-10-23T00:01:15.177Z,84.67
2022-10-23T00:03:42.746Z,84.81
2022-10-23T00:06:10.605Z,84.49
2022-10-23T00:08:37.796Z,84.37
2022-10-23T00:11:09.522Z,84.42
2022-10-23T00:13:36.958Z,84.00
2022-10-23T00:16:03.904Z,84.30
2022-10-23T00:18:31.103Z,84.10
2022-10-23T00:20:57.923Z,83.99
2022-10-23T00:23:25.137Z,84.14
2022-10-23T00:25:51.874Z,84.18
2022-10-23T00:28:18.522Z,84.13
2022-10-23T00:30:45.196Z,84.40
2022-10-23T00:33:11.975Z,84.38
2022-10-23T00:35:40.503Z,84.50
2022-10-23T00:38:08.995Z,84.55
2022-10-23T00:40:37.041Z,84.61
2022-10-23T00:43:04.582Z,85.10
2022-10-23T00:45:32.857Z,85.36
2022-10-23T00:48:01.413Z,85.67
2022-10-23T00:50:32.897Z,86.05
2022-10-23T00:53:03.033Z,86.10
2022-10-23T00:55:31.717Z,85.78
2022-10-23T00:57:58.703Z,85.87
2022-10-23T01:00:31.365Z,86.62
2022-10-23T01:02:59.468Z,86.74
2022-10-23T01:05:44.300Z,86.70
2022-10-23T01:08:35.187Z,86.87
2022-10-23T01:11:40.420Z,86.34
2022-10-23T01:14:26.094Z,86.59
2022-10-23T01:17:17.159Z,86.34
2022-10-23T01:19:54.310Z,86.81
2022-10-23T01:22:33.419Z,86.50
2022-10-23T01:25:10.716Z,86.39
2022-10-23T01:27:46.834Z,86.53
2022-10-23T01:30:16.295Z,86.79
2022-10-23T01:32:48.724Z,87.25
2022-10-23T01:35:22.087Z,87.38
2022-10-23T01:38:10.931Z,87.19
2022-10-23T01:40:49.923Z,87.14
2022-10-23T01:43:25.396Z,86.96
2022-10-23T01:46:00.557Z,86.92
2022-10-23T01:48:29.612Z,86.78
2022-10-23T01:51:01.925Z,86.74
2022-10-23T01:53:33.392Z,86.45
2022-10-23T01:56:03.613Z,86.10
2022-10-23T01:58:33.103Z,85.89
2022-10-23T02:01:05.233Z,85.68
2022-10-23T02:03:36.491Z,85.51
2022-10-23T02:06:03.618Z,85.35
2022-10-23T02:08:31.410Z,84.96
2022-10-23T02:11:01.165Z,84.72
2022-10-23T02:13:27.966Z,84.39
2022-10-23T02:16:13.982Z,84.19
2022-10-23T02:19:16.477Z,83.89
2022-10-23T02:21:58.540Z,83.47
2022-10-23T02:24:37.375Z,83.32
2022-10-23T02:27:12.471Z,83.22
2022-10-23T02:29:48.729Z,82.83
2022-10-23T02:32:19.449Z,82.87
2022-10-23T02:34:47.785Z,82.51
2022-10-23T02:37:15.543Z,82.41
2022-10-23T02:39:42.483Z,82.49
2022-10-23T02:42:33.788Z,82.55
2022-10-23T02:45:21.005Z,82.51
2022-10-23T02:47:56.994Z,82.49
2022-10-23T02:50:32.637Z,82.54
2022-10-23T02:53:18.534Z,82.15
2022-10-23T02:56:02.848Z,82.44
2022-10-23T02:59:05.547Z,82.42
2022-10-23T03:01:42.227Z,82.45
2022-10-23T03:04:11.196Z,82.27
2022-10-23T03:06:38.437Z,82.16
2022-10-23T03:09:07.815Z,82.22
2022-10-23T03:11:35.430Z,82.27
2022-10-23T03:14:02.919Z,82.26
2022-10-23T03:16:29.717Z,82.40
2022-10-23T03:18:56.531Z,82.59
2022-10-23T03:21:23.932Z,82.55
2022-10-23T03:23:52.637Z,82.55
2022-10-23T03:26:25.033Z,82.31
2022-10-23T03:28:51.703Z,82.19
2022-10-23T03:31:19.242Z,82.22
2022-10-23T03:33:46.253Z,82.45
2022-10-23T03:36:12.873Z,82.69
2022-10-23T03:38:40.051Z,82.74
2022-10-23T03:41:06.727Z,82.65
2022-10-23T03:43:33.492Z,82.99
2022-10-23T03:46:01.473Z,83.62
2022-10-23T03:48:28.199Z,84.45
2022-10-23T03:50:58.250Z,84.18
2022-10-23T03:53:24.985Z,84.22
2022-10-23T03:55:51.797Z,84.37
2022-10-23T03:58:18.534Z,84.43
2022-10-23T04:00:45.351Z,84.50
2022-10-23T04:03:12.248Z,84.43
2022-10-23T04:05:41.441Z,84.35
2022-10-23T04:08:09.400Z,84.50
2022-10-23T04:10:36.634Z,84.49
2022-10-23T04:13:03.364Z,84.60
2022-10-23T04:15:34.883Z,84.84
2022-10-23T04:18:02.188Z,84.54
2022-10-23T04:20:31.401Z,84.97
2022-10-23T04:23:01.844Z,84.73
2022-10-23T04:25:28.797Z,84.52
2022-10-23T04:27:55.589Z,84.85
2022-10-23T04:30:22.293Z,85.00
2022-10-23T04:32:52.325Z,85.33
2022-10-23T04:35:19.645Z,85.88
2022-10-23T04:37:46.709Z,85.77
2022-10-23T04:40:13.691Z,86.12
2022-10-23T04:42:40.592Z,86.29
2022-10-23T04:45:07.896Z,86.16
2022-10-23T04:47:35.388Z,86.51
2022-10-23T04:50:03.168Z,86.35
2022-10-23T04:52:48.671Z,86.54
2022-10-23T04:55:48.962Z,86.19
2022-10-23T04:58:23.007Z,86.71
2022-10-23T05:00:50.735Z,87.17
2022-10-23T05:03:25.034Z,87.14
2022-10-23T05:05:54.832Z,86.99
2022-10-23T05:08:27.884Z,87.00
2022-10-23T05:11:13.257Z,86.92
2022-10-23T05:13:44.297Z,87.33
2022-10-23T05:16:20.845Z,87.24
2022-10-23T05:18:48.465Z,87.70
2022-10-23T05:21:25.443Z,87.60
2022-10-23T05:23:54.070Z,87.82
2022-10-23T05:26:22.075Z,87.78
2022-10-23T05:28:49.334Z,87.63
2022-10-23T05:31:19.264Z,87.56
2022-10-23T05:33:50.397Z,87.50
2022-10-23T05:36:19.634Z,87.12
2022-10-23T05:38:46.709Z,87.01
2022-10-23T05:41:16.772Z,86.82
2022-10-23T05:43:45.606Z,86.87
2022-10-23T05:46:31.017Z,86.62
2022-10-23T05:49:15.310Z,86.57
2022-10-23T05:51:52.968Z,86.32
2022-10-23T05:54:29.961Z,86.04
2022-10-23T05:57:23.336Z,86.21
2022-10-23T05:59:52.222Z,86.05
2022-10-23T06:02:38.090Z,85.84
2022-10-23T06:05:10.538Z,85.46
2022-10-23T06:07:40.509Z,85.16
2022-10-23T06:10:08.018Z,84.92
2022-10-23T06:12:38.612Z,84.88
2022-10-23T06:15:06.479Z,84.66
2022-10-23T06:18:03.895Z,84.61
2022-10-23T06:20:37.762Z,84.56
2022-10-23T06:23:16.198Z,84.49
2022-10-23T06:26:04.368Z,84.57
2022-10-23T06:28:38.316Z,84.10
2022-10-23T06:31:06.387Z,83.92
2022-10-23T06:33:33.780Z,83.72
2022-10-23T06:36:04.909Z,83.57
2022-10-23T06:38:37.016Z,83.37
2022-10-23T06:41:04.703Z,83.23
2022-10-23T06:43:35.599Z,83.31
2022-10-23T06:46:16.466Z,83.10
2022-10-23T06:49:02.837Z,83.04
2022-10-23T06:51:33.272Z,82.81
2022-10-23T06:54:00.295Z,82.73
2022-10-23T06:56:50.766Z,82.72
2022-10-23T06:59:20.733Z,82.63
2022-10-23T07:01:49.479Z,82.58
2022-10-23T07:04:16.908Z,82.58
2022-10-23T07:06:44.113Z,82.72
2022-10-23T07:09:10.939Z,82.45
2022-10-23T07:12:03.937Z,82.28
2022-10-23T07:14:38.885Z,81.94
2022-10-23T07:17:06.437Z,81.60
2022-10-23T07:19:33.231Z,81.34
2022-10-23T07:22:14.902Z,80.88
2022-10-23T07:24:47.414Z,80.07
2022-10-23T07:27:20.435Z,79.10
2022-10-23T07:29:53.684Z,78.75
2022-10-23T07:32:20.578Z,77.61
2022-10-23T07:35:06.279Z,76.91
2022-10-23T07:37:34.744Z,76.47
2022-10-23T07:40:04.373Z,76.11
2022-10-23T07:42:31.928Z,75.01
2022-10-23T07:44:58.697Z,74.18
2022-10-23T07:47:25.444Z,73.37
2022-10-23T07:49:52.525Z,73.10
2022-10-23T07:52:20.166Z,70.39
2022-10-23T07:55:09.346Z,67.82
2022-10-23T07:57:41.408Z,66.76
2022-10-23T08:00:17.960Z,58.51
2022-10-23T08:03:10.220Z,52.34
2022-10-23T08:05:37.146Z,51.01
2022-10-23T08:08:05.421Z,47.85
2022-10-23T08:10:33.098Z,47.33
2022-10-23T08:13:04.520Z,44.43
2022-10-23T08:15:50.892Z,42.04
2022-10-23T08:18:45.371Z,41.69
2022-10-23T08:21:12.348Z,43.69
2022-10-23T08:23:39.360Z,44.42
2022-10-23T08:26:07.134Z,45.20
2022-10-23T08:28:35.441Z,46.34
2022-10-23T08:31:14.819Z,47.94
2022-10-23T08:33:46.695Z,49.24
2022-10-23T08:36:19.085Z,49.84
2022-10-23T08:38:46.322Z,49.62
2022-10-23T08:41:27.698Z,48.97
2022-10-23T08:44:21.313Z,48.18
2022-10-23T08:47:00.854Z,44.16
2022-10-23T08:49:43.766Z,39.04
2022-10-23T08:52:26.955Z,36.94
2022-10-23T08:54:53.819Z,33.97
2022-10-23T08:57:24.715Z,33.81
2022-10-23T09:00:00.088Z,35.16
2022-10-23T09:02:41.276Z,36.02
2022-10-23T09:05:15.838Z,37.59
2022-10-23T09:08:15.634Z,38.63
2022-10-23T09:11:20.697Z,38.65
2022-10-23T09:13:50.119Z,39.45
2022-10-23T09:16:50.253Z,40.11
2022-10-23T09:19:27.618Z,39.62
2022-10-23T09:21:55.826Z,39.63
2022-10-23T09:24:30.911Z,39.75
2022-10-23T09:26:59.631Z,38.97
2022-10-23T09:29:35.310Z,36.00
2022-10-23T09:32:06.331Z,36.24
2022-10-23T09:34:34.869Z,36.37
2022-10-23T09:37:17.234Z,37.53
2022-10-23T09:39:44.074Z,37.93
2022-10-23T09:42:24.247Z,38.58
2022-10-23T09:44:54.084Z,38.72
2022-10-23T09:47:24.238Z,38.57
2022-10-23T09:49:53.605Z,37.93
2022-10-23T09:52:30.127Z,36.04
2022-10-23T09:54:59.981Z,35.87
2022-10-23T09:57:44.420Z,35.84
2022-10-23T10:00:19.296Z,36.63
2022-10-23T10:03:04.774Z,38.02
2022-10-23T10:05:41.805Z,39.39
2022-10-23T10:08:13.194Z,40.20
2022-10-23T10:11:11.562Z,40.90
2022-10-23T10:13:52.158Z,41.13
2022-10-23T10:16:45.487Z,37.88
2022-10-23T10:19:39.557Z,34.81
2022-10-23T10:22:29.401Z,32.09
2022-10-23T10:25:03.585Z,31.25
2022-10-23T10:28:02.968Z,30.86
2022-10-23T10:30:44.434Z,32.69
2022-10-23T10:33:28.316Z,32.52
2022-10-23T10:36:05.113Z,31.07
2022-10-23T10:38:47.094Z,29.17
2022-10-23T10:41:28.062Z,29.01
2022-10-23T10:44:31.300Z,28.83
2022-10-23T10:47:04.350Z,26.72
2022-10-23T10:50:10.953Z,25.43
2022-10-23T10:53:26.934Z,23.80
2022-10-23T10:55:56.807Z,22.58
2022-10-23T10:58:42.314Z,22.73
2022-10-23T11:01:28.384Z,22.10
2022-10-23T11:04:10.817Z,21.70
2022-10-23T11:06:38.205Z,21.51
2022-10-23T11:09:20.958Z,21.32
2022-10-23T11:11:48.894Z,21.28
2022-10-23T11:14:24.928Z,21.01
2022-10-23T11:17:04.405Z,21.32
2022-10-23T11:19:42.140Z,20.95
2022-10-23T11:22:24.002Z,21.20
2022-10-23T11:25:02.812Z,22.12
2022-10-23T11:27:32.747Z,23.64
2022-10-23T11:30:25.269Z,25.23
2022-10-23T11:32:54.740Z,26.35
2022-10-23T11:35:30.268Z,28.23
2022-10-23T11:38:08.695Z,30.72
2022-10-23T11:40:35.618Z,32.22
2022-10-23T11:43:02.317Z,33.50
2022-10-23T11:45:35.411Z,34.07
2022-10-23T11:48:18.645Z,34.58
2022-10-23T11:50:48.030Z,35.32
2022-10-23T11:53:38.508Z,36.72
2022-10-23T11:56:06.294Z,37.57
2022-10-23T11:58:45.184Z,38.10
2022-10-23T12:01:40.953Z,38.26
2022-10-23T12:04:17.720Z,38.59
2022-10-23T12:06:49.723Z,39.19
2022-10-23T12:09:51.641Z,39.71
2022-10-23T12:12:42.016Z,40.04
2022-10-23T12:15:21.682Z,40.32
2022-10-23T12:17:50.726Z,41.68
2022-10-23T12:20:37.244Z,41.74
2022-10-23T12:23:29.795Z,41.57
2022-10-23T12:26:33.822Z,42.32
2022-10-23T12:29:40.413Z,43.33
2022-10-23T12:32:24.881Z,44.25
2022-10-23T12:35:17.840Z,44.10
2022-10-23T12:38:00.416Z,44.79
2022-10-23T12:40:29.621Z,44.80
2022-10-23T12:43:00.151Z,45.30
2022-10-23T12:45:36.579Z,46.12
2022-10-23T12:48:03.819Z,46.61
2022-10-23T12:50:32.577Z,46.41
2022-10-23T12:53:06.021Z,46.96
2022-10-23T12:58:34.908Z,47.14
2022-10-23T13:01:05.611Z,47.65
2022-10-23T13:03:33.691Z,47.51
2022-10-23T13:06:03.202Z,47.74
2022-10-23T13:08:40.234Z,47.78
2022-10-23T13:11:36.522Z,48.34
2022-10-23T13:14:13.629Z,48.35
2022-10-23T13:16:40.465Z,48.51
2022-10-23T13:19:22.313Z,48.16
2022-10-23T13:21:49.142Z,48.85
2022-10-23T13:24:21.217Z,49.03
2022-10-23T13:26:48.632Z,49.69
2022-10-23T13:29:22.924Z,50.40
2022-10-23T13:31:50.353Z,50.39
2022-10-23T13:34:28.722Z,51.08
2022-10-23T13:36:58.251Z,51.27
2022-10-23T13:39:29.249Z,53.64
2022-10-23T13:42:00.925Z,54.61
2022-10-23T13:44:28.441Z,55.31
2022-10-23T13:46:55.997Z,55.38
2022-10-23T13:49:22.750Z,53.82
2022-10-23T13:51:54.456Z,52.95
2022-10-23T13:56:58.906Z,55.49
2022-10-23T13:59:25.581Z,56.16
2022-10-23T14:01:52.874Z,56.78
2022-10-23T14:04:20.588Z,57.02
2022-10-23T14:06:47.462Z,57.39
2022-10-23T14:09:16.592Z,57.52
2022-10-23T14:11:44.260Z,57.65
2022-10-23T14:14:11.113Z,58.15
2022-10-23T14:16:37.810Z,58.43
2022-10-23T14:19:04.764Z,59.20
2022-10-23T14:21:31.665Z,59.40
2022-10-23T14:23:58.811Z,59.97
2022-10-23T14:26:29.830Z,60.25
2022-10-23T14:29:00.661Z,60.18
2022-10-23T14:31:31.188Z,60.40
2022-10-23T14:34:00.113Z,60.58
2022-10-23T14:36:34.245Z,61.18
2022-10-23T14:39:10.055Z,61.35
2022-10-23T14:41:39.876Z,61.14
2022-10-23T14:44:07.018Z,62.07
2022-10-23T14:46:35.060Z,61.92
2022-10-23T14:49:02.604Z,61.71
2022-10-23T14:51:30.165Z,61.82
2022-10-23T14:54:02.357Z,61.84
2022-10-23T14:56:31.808Z,62.04
2022-10-23T14:59:02.071Z,62.04
2022-10-23T15:04:23.612Z,62.34
2022-10-23T15:06:50.841Z,62.61
2022-10-23T15:09:19.368Z,62.65
2022-10-23T15:11:46.809Z,62.70
2022-10-23T15:14:13.526Z,62.61
2022-10-23T15:16:43.305Z,62.56
2022-10-23T15:19:15.210Z,62.77
2022-10-23T15:21:46.866Z,63.03
2022-10-23T15:24:15.587Z,63.67
2022-10-23T15:26:43.479Z,64.42
2022-10-23T15:29:11.363Z,65.14
2022-10-23T15:31:38.080Z,65.27
2022-10-23T15:34:05.846Z,65.89
2022-10-23T15:36:33.044Z,66.02
2022-10-23T15:39:00.822Z,67.00
2022-10-23T15:41:31.884Z,67.69
2022-10-23T15:44:02.541Z,68.16
2022-10-23T15:46:29.606Z,69.01
2022-10-23T15:48:56.758Z,70.37
2022-10-23T15:51:25.555Z,70.57
2022-10-23T15:53:52.703Z,70.34
2022-10-23T15:56:19.642Z,71.18
2022-10-23T15:58:46.601Z,71.74
2022-10-23T16:01:13.568Z,71.43
2022-10-23T16:03:40.788Z,71.23
2022-10-23T16:06:13.502Z,71.62
2022-10-23T16:08:43.117Z,72.61
2022-10-23T16:11:32.865Z,72.67
2022-10-23T16:14:02.597Z,73.07
2022-10-23T16:16:30.418Z,72.88
2022-10-23T16:19:02.492Z,72.09
2022-10-23T16:21:35.313Z,72.34
2022-10-23T16:24:04.713Z,72.39
2022-10-23T16:26:33.657Z,72.60
2022-10-23T16:29:03.837Z,72.96
2022-10-23T16:31:31.089Z,73.01
2022-10-23T16:34:00.575Z,73.60
2022-10-23T16:36:28.191Z,74.11
2022-10-23T16:39:13.779Z,73.69
2022-10-23T16:41:59.183Z,74.11
2022-10-23T16:44:33.033Z,73.92
2022-10-23T16:47:03.394Z,74.42
2022-10-23T16:49:31.640Z,74.64
2022-10-23T16:51:58.317Z,74.26
2022-10-23T16:54:25.049Z,74.31
2022-10-23T16:56:51.824Z,74.13
2022-10-23T16:59:18.602Z,74.73
2022-10-23T17:01:45.421Z,75.13
2022-10-23T17:04:12.551Z,76.13
2022-10-23T17:06:39.228Z,76.57
2022-10-23T17:09:06.839Z,77.07
2022-10-23T17:11:38.469Z,78.21
2022-10-23T17:14:08.222Z,78.54
2022-10-23T17:16:44.018Z,78.87
2022-10-23T17:19:20.933Z,79.14
2022-10-23T17:21:55.336Z,79.91
2022-10-23T17:24:22.973Z,80.18
2022-10-23T17:26:50.005Z,79.62
2022-10-23T17:29:17.755Z,79.25
2022-10-23T17:31:46.970Z,78.91
2022-10-23T17:34:17.415Z,78.66
2022-10-23T17:36:48.924Z,78.78
2022-10-23T17:39:22.456Z,78.46
2022-10-23T17:41:49.716Z,78.19
2022-10-23T17:44:17.169Z,78.02
2022-10-23T17:46:43.823Z,78.43
2022-10-23T17:49:11.495Z,78.69
2022-10-23T17:51:38.499Z,78.49
2022-10-23T17:54:08.176Z,81.12
2022-10-23T17:56:37.125Z,80.38
2022-10-23T17:59:07.964Z,79.82
2022-10-23T18:01:34.808Z,81.92
2022-10-23T18:04:04.343Z,82.55
2022-10-23T18:06:34.676Z,80.90
2022-10-23T18:09:03.900Z,80.35
2022-10-23T18:11:34.507Z,81.36
2022-10-23T18:14:02.297Z,81.92
2022-10-23T18:16:29.218Z,82.06
2022-10-23T18:18:58.136Z,82.63
2022-10-23T18:21:27.176Z,82.52
2022-10-23T18:23:54.562Z,82.87
2022-10-23T18:26:27.360Z,81.86
2022-10-23T18:28:56.748Z,81.07
2022-10-23T18:31:26.410Z,80.62
2022-10-23T18:34:03.514Z,81.32
2022-10-23T18:36:33.300Z,81.34
2022-10-23T18:39:00.282Z,82.06
2022-10-23T18:41:27.546Z,81.54
2022-10-23T18:43:54.479Z,81.39
2022-10-23T18:46:21.538Z,80.56
2022-10-23T18:48:50.184Z,80.47
2022-10-23T18:51:23.754Z,80.57
2022-10-23T18:53:51.269Z,81.37
2022-10-23T18:56:22.713Z,82.22
2022-10-23T18:58:55.966Z,82.43
2022-10-23T19:01:24.295Z,82.93
2022-10-23T19:03:51.251Z,82.81
2022-10-23T19:06:19.706Z,82.48
2022-10-23T19:08:47.264Z,81.75
2022-10-23T19:11:15.863Z,81.17
2022-10-23T19:13:42.905Z,81.27
2022-10-23T19:16:12.562Z,81.43
2022-10-23T19:18:43.097Z,81.76
2022-10-23T19:21:10.739Z,81.84
2022-10-23T19:23:40.182Z,81.64
2022-10-23T19:26:10.062Z,81.87
2022-10-23T19:28:39.528Z,81.94
2022-10-23T19:31:09.378Z,81.85
2022-10-23T19:33:38.363Z,81.47
2022-10-23T19:36:07.899Z,80.65
2022-10-23T19:38:39.598Z,79.49
2022-10-23T19:41:06.858Z,79.90
2022-10-23T19:43:33.759Z,81.10
2022-10-23T19:46:03.970Z,83.05
2022-10-23T19:48:33.171Z,83.94
2022-10-23T19:50:59.878Z,85.30
2022-10-23T19:53:26.662Z,86.13
2022-10-23T19:56:07.607Z,85.67
2022-10-23T19:58:34.642Z,85.52
2022-10-23T20:01:14.064Z,84.46
2022-10-23T20:03:42.141Z,84.80
2022-10-23T20:06:14.327Z,85.07
2022-10-23T20:08:41.698Z,84.21
2022-10-23T20:11:20.533Z,83.74
2022-10-23T20:13:48.972Z,83.74
2022-10-23T20:16:20.484Z,85.16
2022-10-23T20:18:47.674Z,85.95
2022-10-23T20:21:14.954Z,86.11
2022-10-23T20:23:42.165Z,86.93
2022-10-23T20:26:13.088Z,86.22
2022-10-23T20:28:39.930Z,86.27
2022-10-23T20:31:10.949Z,86.60
2022-10-23T20:33:40.053Z,86.83
2022-10-23T20:36:09.658Z,87.01
2022-10-23T20:38:36.581Z,86.76
2022-10-23T20:41:05.216Z,86.63
2022-10-23T20:43:35.817Z,87.76
2022-10-23T20:46:04.749Z,87.24
2022-10-23T20:48:35.269Z,87.12
2022-10-23T20:51:06.119Z,87.99
2022-10-23T20:53:35.543Z,87.38
2022-10-23T20:56:11.140Z,85.48
2022-10-23T20:58:37.898Z,84.59
2022-10-23T21:01:07.678Z,84.06
2022-10-23T21:03:35.245Z,84.27
2022-10-23T21:06:07.345Z,85.09
2022-10-23T21:08:34.720Z,86.71
2022-10-23T21:11:01.377Z,86.70
2022-10-23T21:13:29.229Z,87.38
2022-10-23T21:15:56.685Z,87.17
2022-10-23T21:18:34.050Z,86.77
2022-10-23T21:21:12.346Z,87.15
2022-10-23T21:23:39.475Z,87.74
2022-10-23T21:26:07.615Z,88.41
2022-10-23T21:28:34.650Z,87.73
2022-10-23T21:31:03.262Z,87.44
2022-10-23T21:33:30.178Z,88.29
2022-10-23T21:35:58.314Z,89.65
2022-10-23T21:38:26.383Z,89.93
2022-10-23T21:40:53.064Z,90.61
2022-10-23T21:43:20.410Z,88.97
2022-10-23T21:45:47.078Z,87.40
2022-10-23T21:48:13.837Z,85.87
2022-10-23T21:50:40.903Z,84.52
2022-10-23T21:53:07.654Z,83.70
2022-10-23T21:55:34.407Z,83.90
2022-10-23T21:58:01.074Z,85.13
2022-10-23T22:00:27.792Z,85.98
2022-10-23T22:02:54.509Z,87.11
2022-10-23T22:05:21.293Z,87.92
2022-10-23T22:07:48.105Z,87.78
2022-10-23T22:10:14.994Z,87.71
2022-10-23T22:12:41.677Z,88.14
2022-10-23T22:15:08.930Z,88.12
2022-10-23T22:17:35.692Z,88.02
2022-10-23T22:20:02.606Z,87.26
2022-10-23T22:22:29.300Z,86.92
2022-10-23T22:24:55.960Z,86.38
2022-10-23T22:27:22.725Z,87.27
2022-10-23T22:29:49.445Z,86.40
2022-10-23T22:32:16.047Z,86.02
2022-10-23T22:34:52.987Z,85.40
2022-10-23T22:37:20.272Z,84.48
2022-10-23T22:39:50.354Z,84.74
2022-10-23T22:42:17.233Z,84.52
2022-10-23T22:44:43.791Z,84.58
2022-10-23T22:47:10.526Z,84.62
2022-10-23T22:49:37.862Z,84.39
2022-10-23T22:52:04.724Z,84.97
2022-10-23T22:54:31.894Z,86.38
2022-10-23T22:56:58.621Z,86.08
2022-10-23T22:59:25.509Z,86.13
2022-10-23T23:01:52.306Z,86.93
2022-10-23T23:04:37.436Z,87.22
2022-10-23T23:07:08.223Z,87.25
2022-10-23T23:09:37.128Z,87.33
2022-10-23T23:12:05.022Z,86.73
2022-10-23T23:14:31.701Z,85.80
2022-10-23T23:16:58.883Z,85.57
2022-10-23T23:19:26.165Z,86.04
2022-10-23T23:21:57.722Z,85.99
2022-10-23T23:24:25.291Z,85.99
2022-10-23T23:26:52.061Z,86.51
2022-10-23T23:29:19.063Z,87.24
2022-10-23T23:31:45.974Z,86.99
2022-10-23T23:34:13.087Z,86.47
2022-10-23T23:36:40.594Z,86.88
2022-10-23T23:39:07.472Z,86.46
2022-10-23T23:41:34.212Z,86.17
2022-10-23T23:44:00.811Z,86.42
2022-10-23T23:46:27.495Z,85.79
2022-10-23T23:48:54.218Z,85.17
2022-10-23T23:51:24.069Z,85.12
2022-10-23T23:53:51.990Z,85.64
2022-10-23T23:56:19.365Z,86.07
2022-10-23T23:58:46.264Z,86.23
